createdAt,value
2018-06-05T00:00:15.045Z,42.50
2018-06-05T00:02:45.760Z,45.70
2018-06-05T00:05:17.643Z,44.50
2018-06-05T00:07:51.124Z,51.03
2018-06-05T00:12:59.719Z,43.33
2018-06-05T00:15:30.464Z,55.27
2018-06-05T00:18:00.344Z,68.83
2018-06-05T00:20:30.543Z,55.70
2018-06-05T00:23:05.019Z,52.67
2018-06-05T00:25:36.821Z,50.17
2018-06-05T00:28:08.094Z,49.60
2018-06-05T00:30:43.140Z,47.63
2018-06-05T00:35:53.319Z,57.90
2018-06-05T00:38:27.153Z,53.60
2018-06-05T00:40:57.262Z,54.03
2018-06-05T00:43:27.585Z,57.37
2018-06-05T00:45:58.490Z,50.70
2018-06-05T00:48:30.625Z,49.53
2018-06-05T00:51:01.149Z,53.17
2018-06-05T00:53:31.037Z,52.90
2018-06-05T00:56:06.918Z,55.50
2018-06-05T00:58:37.441Z,54.93
2018-06-05T01:01:07.269Z,51.70
2018-06-05T01:03:37.312Z,53.00
2018-06-05T01:06:07.002Z,59.17
2018-06-05T01:08:37.113Z,55.63
2018-06-05T01:11:08.093Z,66.13
2018-06-05T01:13:38.443Z,63.83
2018-06-05T01:16:08.775Z,62.23
2018-06-05T01:18:38.384Z,57.80
2018-06-05T01:21:08.374Z,56.40
2018-06-05T01:23:37.899Z,57.33
2018-06-05T01:26:07.620Z,58.47
2018-06-05T01:28:37.573Z,64.17
2018-06-05T01:31:08.876Z,64.33
2018-06-05T01:33:38.755Z,66.30
2018-06-05T01:36:09.353Z,57.80
2018-06-05T01:38:41.415Z,70.50
2018-06-05T01:41:11.642Z,68.00
2018-06-05T01:43:41.075Z,64.63
2018-06-05T01:46:10.926Z,60.83
2018-06-05T01:48:41.392Z,57.23
2018-06-05T01:51:11.793Z,65.83
2018-06-05T01:53:43.108Z,65.00
2018-06-05T01:56:13.116Z,66.97
2018-06-05T01:58:42.710Z,61.20
2018-06-05T02:01:11.973Z,63.63
2018-06-05T02:03:41.138Z,67.47
2018-06-05T02:06:11.086Z,70.40
2018-06-05T02:08:40.940Z,66.50
2018-06-05T02:11:10.988Z,67.90
2018-06-05T02:13:48.889Z,79.43
2018-06-05T02:16:19.531Z,70.77
2018-06-05T02:18:49.923Z,73.87
2018-06-05T02:21:19.885Z,69.03
2018-06-05T02:23:50.921Z,78.57
2018-06-05T02:26:21.459Z,77.47
2018-06-05T02:29:03.458Z,75.90
2018-06-05T02:31:45.264Z,81.27
2018-06-05T02:34:28.518Z,69.87
2018-06-05T02:37:03.843Z,88.30
2018-06-05T02:39:34.118Z,78.33
2018-06-05T02:42:10.409Z,82.13
2018-06-05T02:45:15.724Z,79.63
2018-06-05T02:47:49.569Z,86.80
2018-06-05T02:50:43.143Z,76.33
2018-06-05T02:53:43.777Z,78.47
2018-06-05T02:56:13.303Z,75.23
2018-06-05T02:58:42.814Z,80.60
2018-06-05T03:01:12.850Z,84.40
2018-06-05T03:03:43.978Z,91.03
2018-06-05T03:06:13.900Z,91.47
2018-06-05T03:10:45.361Z,81.00
2018-06-05T03:13:15.222Z,76.07
2018-06-05T03:15:47.108Z,87.60
2018-06-05T03:18:26.347Z,74.50
2018-06-05T06:20:44.507Z,43.17
2018-06-05T06:32:31.691Z,41.27
2018-06-05T06:35:00.545Z,34.50
2018-06-05T06:37:46.126Z,41.20
2018-06-05T06:40:17.950Z,39.97
2018-06-05T06:42:52.413Z,44.73
2018-06-05T06:45:21.532Z,44.10
2018-06-05T06:47:55.808Z,37.20
2018-06-05T06:50:28.881Z,38.67
2018-06-05T06:52:57.931Z,39.60
2018-06-05T06:55:32.574Z,40.17
2018-06-05T06:58:02.767Z,35.77
2018-06-05T07:00:34.503Z,38.93
2018-06-05T07:03:08.587Z,37.40
2018-06-05T07:05:37.434Z,36.33
2018-06-05T07:08:09.227Z,42.23
2018-06-05T07:10:39.805Z,33.93
2018-06-05T07:13:08.405Z,37.63
2018-06-05T07:15:38.552Z,33.43
2018-06-05T07:18:07.603Z,39.60
2018-06-05T07:20:40.090Z,34.83
2018-06-05T07:23:17.161Z,33.60
2018-06-05T07:25:47.288Z,35.73
2018-06-05T07:28:17.786Z,38.00
2018-06-05T07:30:47.589Z,45.93
2018-06-05T07:33:16.859Z,31.67
2018-06-05T07:35:46.883Z,35.07
2018-06-05T07:38:21.206Z,37.40
2018-06-05T07:40:50.501Z,45.53
2018-06-05T07:43:23.866Z,35.73
2018-06-05T07:45:52.451Z,43.80
2018-06-05T07:48:21.317Z,40.57
2018-06-05T07:50:49.973Z,46.87
2018-06-05T07:53:20.445Z,53.50
2018-06-05T07:59:59.686Z,37.10
2018-06-05T08:02:28.661Z,41.23
2018-06-05T08:04:57.770Z,45.67
2018-06-05T08:07:42.774Z,45.97
2018-06-05T08:10:16.575Z,50.47
2018-06-05T08:13:05.231Z,49.90
2018-06-05T08:15:42.543Z,44.40
2018-06-05T08:33:12.379Z,42.67
2018-06-05T08:35:41.245Z,46.10
2018-06-05T08:38:09.695Z,46.63
2018-06-05T08:40:41.862Z,44.43
2018-06-05T08:43:11.300Z,48.93
2018-06-05T08:51:47.188Z,41.73
2018-06-05T08:54:15.536Z,42.57
2018-06-05T08:56:44.769Z,46.60
2018-06-05T08:59:16.449Z,51.73
2018-06-05T09:01:44.953Z,50.10
2018-06-05T09:04:13.537Z,56.00
2018-06-05T09:06:46.217Z,44.37
2018-06-05T09:09:14.729Z,45.93
2018-06-05T09:11:43.250Z,44.17
2018-06-05T09:14:11.893Z,45.90
2018-06-05T09:16:41.335Z,45.37
2018-06-05T09:19:10.181Z,45.70
2018-06-05T09:21:38.691Z,48.40
2018-06-05T09:24:08.745Z,45.03
2018-06-05T09:26:38.161Z,55.47
2018-06-05T09:29:06.770Z,49.40
2018-06-05T09:31:36.511Z,50.47
2018-06-05T09:39:28.468Z,54.57
2018-06-05T10:54:00.070Z,63.13
2018-06-05T10:56:28.456Z,63.17
2018-06-05T10:58:56.797Z,68.20
2018-06-05T11:01:25.193Z,61.77
2018-06-05T11:03:54.073Z,68.63
2018-06-05T11:06:22.461Z,65.20
2018-06-05T11:08:56.639Z,67.80
2018-06-05T11:11:25.466Z,62.70
2018-06-05T11:13:53.828Z,64.80
2018-06-05T11:16:22.965Z,63.77
2018-06-05T11:18:52.234Z,74.13
2018-06-05T11:21:20.814Z,71.07
2018-06-05T11:24:02.270Z,65.33
2018-06-05T11:26:30.890Z,73.67
2018-06-05T11:28:59.345Z,77.47
2018-06-05T11:31:27.749Z,76.77
2018-06-05T11:33:56.166Z,74.03
2018-06-05T11:36:25.140Z,79.20
2018-06-05T11:38:53.613Z,66.70
2018-06-05T11:41:22.069Z,71.83
2018-06-05T11:43:50.402Z,77.90
2018-06-05T11:46:20.050Z,73.87
2018-06-05T11:48:48.424Z,74.70
2018-06-05T11:51:16.761Z,86.13
2018-06-05T11:53:45.073Z,75.97
2018-06-05T11:56:13.736Z,78.83
2018-06-05T11:58:42.159Z,79.67
2018-06-05T12:01:10.485Z,72.77
2018-06-05T12:03:38.805Z,71.43
2018-06-05T12:06:07.285Z,63.40
2018-06-05T12:08:35.719Z,64.00
2018-06-05T12:11:04.057Z,70.13
2018-06-05T12:13:32.764Z,59.07
2018-06-05T12:16:01.217Z,56.70
2018-06-05T12:18:29.621Z,53.03
2018-06-05T12:20:58.000Z,56.03
2018-06-05T12:23:27.745Z,62.93
2018-06-05T12:25:56.106Z,50.27
2018-06-05T12:28:24.443Z,56.57
2018-06-05T12:30:52.974Z,46.77
2018-06-05T12:33:21.628Z,56.10
2018-06-05T12:35:50.001Z,50.60
2018-06-05T12:38:18.445Z,55.30
2018-06-05T12:40:47.147Z,53.83
2018-06-05T12:43:15.569Z,51.37
2018-06-05T12:45:44.714Z,52.40
2018-06-05T12:48:13.682Z,56.40
2018-06-05T12:50:42.809Z,49.50
2018-06-05T12:53:11.577Z,48.60
2018-06-05T12:55:39.897Z,49.10
2018-06-05T12:58:09.561Z,53.53
2018-06-05T13:00:38.553Z,51.40
2018-06-05T13:03:09.628Z,50.60
2018-06-05T13:05:38.101Z,53.57
2018-06-05T13:08:06.853Z,54.67
2018-06-05T13:10:35.365Z,48.20
2018-06-05T13:13:04.731Z,52.07
2018-06-05T13:15:34.152Z,58.53
2018-06-05T13:18:02.621Z,54.87
2018-06-05T13:20:31.082Z,48.43
2018-06-05T13:22:59.773Z,52.33
2018-06-05T13:25:28.574Z,55.23
2018-06-05T13:27:57.187Z,53.70
2018-06-05T13:30:25.510Z,51.73
2018-06-05T13:32:53.845Z,50.07
2018-06-05T13:35:22.192Z,53.50
2018-06-05T13:37:50.551Z,54.40
2018-06-05T13:40:18.932Z,54.90
2018-06-05T13:42:50.821Z,53.40
2018-06-05T13:45:21.152Z,49.13
2018-06-05T13:47:49.611Z,49.60
2018-06-05T13:50:19.198Z,47.67
2018-06-05T13:52:47.714Z,48.07
2018-06-05T13:55:16.601Z,44.37
2018-06-05T13:57:45.618Z,42.30
2018-06-05T14:00:14.477Z,50.87
2018-06-05T14:02:43.445Z,57.53
2018-06-05T14:05:13.797Z,44.97
2018-06-05T14:07:42.540Z,51.60
2018-06-05T14:10:11.911Z,46.07
2018-06-05T14:12:44.032Z,41.03
2018-06-05T14:15:13.568Z,42.03
2018-06-05T14:17:43.179Z,50.13
2018-06-05T14:20:11.817Z,43.63
2018-06-05T14:22:40.278Z,48.60
2018-06-05T14:25:09.575Z,42.17
2018-06-05T14:27:38.529Z,37.83
2018-06-05T14:30:07.775Z,51.70
2018-06-05T14:32:36.533Z,43.60
2018-06-05T14:35:07.465Z,40.20
2018-06-05T14:37:39.851Z,44.63
2018-06-05T14:40:10.624Z,39.23
2018-06-05T14:42:42.976Z,40.57
2018-06-05T14:45:15.274Z,43.10
2018-06-05T14:47:44.400Z,41.30
2018-06-05T14:50:13.339Z,42.03
2018-06-05T14:52:41.836Z,41.83
2018-06-05T14:55:10.894Z,37.43
2018-06-05T14:57:41.209Z,48.13
2018-06-05T15:00:11.063Z,38.47
2018-06-05T15:02:41.964Z,37.70
2018-06-05T15:05:13.835Z,41.40
2018-06-05T15:07:44.763Z,42.17
2018-06-05T15:10:14.614Z,45.53
2018-06-05T15:12:43.249Z,42.13
2018-06-05T15:15:11.982Z,40.87
2018-06-05T15:17:40.884Z,40.00
2018-06-05T15:20:11.338Z,58.10
2018-06-05T15:22:39.907Z,39.47
2018-06-05T15:25:08.417Z,43.47
2018-06-05T15:27:36.958Z,44.57
2018-06-05T15:30:07.938Z,51.43
2018-06-05T15:32:36.285Z,44.83
2018-06-05T15:35:05.381Z,35.03
2018-06-05T15:37:35.345Z,31.50
2018-06-05T15:40:04.331Z,39.03
2018-06-05T15:42:32.986Z,38.33
2018-06-05T15:45:03.020Z,42.20
2018-06-05T15:47:32.247Z,33.70
2018-06-05T15:50:01.097Z,35.00
2018-06-05T15:52:30.582Z,35.67
2018-06-05T15:54:59.518Z,34.07
2018-06-05T15:57:28.117Z,37.70
2018-06-05T15:59:56.958Z,40.30
2018-06-05T16:02:26.552Z,39.97
2018-06-05T16:04:55.222Z,37.60
2018-06-05T16:07:23.975Z,32.93
2018-06-05T16:09:53.574Z,39.10
2018-06-05T16:12:22.121Z,34.90
2018-06-05T16:14:50.941Z,40.07
2018-06-05T16:17:19.517Z,40.40
2018-06-05T16:19:47.888Z,40.77
2018-06-05T16:22:18.291Z,36.93
2018-06-05T16:24:48.702Z,42.73
2018-06-05T16:27:17.251Z,36.47
2018-06-05T16:29:47.943Z,34.50
2018-06-05T16:32:16.867Z,34.50
2018-06-05T16:34:46.518Z,37.37
2018-06-05T16:37:15.010Z,40.67
2018-06-05T16:39:43.425Z,35.67
2018-06-05T16:42:11.882Z,41.00
2018-06-05T16:44:40.965Z,39.37
2018-06-05T17:30:08.662Z,37.60
2018-06-05T18:34:30.556Z,37.93
2018-06-05T18:44:06.216Z,37.83
2018-06-05T18:46:35.610Z,44.90
2018-06-05T18:49:06.649Z,52.10
2018-06-05T18:51:37.049Z,45.90
2018-06-05T18:54:07.160Z,48.00
2018-06-05T18:56:35.965Z,51.53
2018-06-05T18:59:04.542Z,52.30
2018-06-05T19:01:32.931Z,52.43
2018-06-05T19:04:01.293Z,54.10
2018-06-05T19:06:33.313Z,51.70
2018-06-05T19:09:16.064Z,70.40
2018-06-05T19:14:19.174Z,61.33
2018-06-05T19:16:49.061Z,70.67
2018-06-05T19:19:22.610Z,64.20
2018-06-05T19:21:51.555Z,59.77
2018-06-05T19:24:29.418Z,58.27
2018-06-05T19:26:58.076Z,80.23
2018-06-05T19:29:27.150Z,68.20
2018-06-05T19:31:55.814Z,63.97
2018-06-05T19:34:24.424Z,70.17
2018-06-05T19:36:54.957Z,66.77
2018-06-05T19:39:28.763Z,79.67
2018-06-05T19:42:07.528Z,75.10
2018-06-05T19:44:46.271Z,69.30
2018-06-05T19:47:21.359Z,70.83
2018-06-05T19:50:01.694Z,72.70
2018-06-05T19:55:55.629Z,77.43
2018-06-05T20:08:39.153Z,76.63
2018-06-05T21:10:57.220Z,105.20
2018-06-05T21:13:54.905Z,101.27
2018-06-05T21:22:13.573Z,101.00
2018-06-05T21:24:43.022Z,90.00
2018-06-05T21:27:23.413Z,96.53
2018-06-05T21:43:30.286Z,97.43
2018-06-05T21:46:15.941Z,101.50
2018-06-05T21:48:52.050Z,105.20
2018-06-05T21:54:35.324Z,102.37
2018-06-05T21:57:07.434Z,105.47
2018-06-05T21:59:36.337Z,102.33
2018-06-05T22:02:05.812Z,111.60
2018-06-05T22:04:34.998Z,112.03
2018-06-05T22:07:03.857Z,105.20
2018-06-05T22:09:34.829Z,102.47
2018-06-05T22:15:19.008Z,114.40
2018-06-05T22:17:48.988Z,110.90
2018-06-05T22:23:31.759Z,108.63
2018-06-05T23:06:43.781Z,103.07
2018-06-05T23:17:09.635Z,105.93
2018-06-05T23:19:43.419Z,90.80
